Time;durP1;ratioP1;P1;durP2;ratioP2;P2;SDS_P1;SDS_P2;PMS_P1;PMS_P2;Temp;Humidity;BMP_temperature;BMP_pressure;BME280_temperature;BME280_humidity;BME280_pressure;Samples;Min_cycle;Max_cycle;Signal;HPM_P1;HPM_P2
2022/10/26 05:08:20;;;;;;;9.27;5.65;;;15.80;77.80;;;;;;4847543;29;20068;-72
2022/10/26 05:10:49;;;;;;;10.02;6.60;;;15.90;77.30;;;;;;4846639;29;20058;-70
2022/10/26 05:13:15;;;;;;;13.68;6.45;;;15.70;76.00;;;;;;4846812;29;20061;-70
2022/10/26 05:15:41;;;;;;;17.73;6.18;;;15.80;76.90;;;;;;4846857;29;20447;-71
2022/10/26 05:18:08;;;;;;;16.90;6.65;;;15.80;78.00;;;;;;4861083;29;21421;-73
2022/10/26 05:20:35;;;;;;;14.82;6.97;;;15.90;78.50;;;;;;4864894;29;20092;-72
2022/10/26 05:23:05;;;;;;;25.27;6.82;;;15.90;78.90;;;;;;4865556;29;20366;-72
2022/10/26 05:25:34;;;;;;;22.83;7.10;;;16.00;78.70;;;;;;4865011;29;20053;-73
2022/10/26 05:28:03;;;;;;;28.52;7.22;;;16.10;79.60;;;;;;4834623;29;20045;-71
2022/10/26 05:30:29;;;;;;;22.98;6.40;;;16.10;81.00;;;;;;4853679;29;20050;-74
2022/10/26 05:32:57;;;;;;;33.03;7.40;;;16.20;81.40;;;;;;4864644;29;20100;-73
2022/10/26 05:35:23;;;;;;;16.77;5.38;;;16.20;81.00;;;;;;4865509;29;20050;-73
2022/10/26 05:37:49;;;;;;;21.30;5.78;;;16.20;78.90;;;;;;4836135;29;20136;-74
2022/10/26 05:40:16;;;;;;;21.33;6.05;;;16.20;79.30;;;;;;4846496;29;20129;-76
2022/10/26 05:42:42;;;;;;;21.45;6.72;;;16.20;80.40;;;;;;4845186;29;20367;-75
2022/10/26 05:45:08;;;;;;;35.42;7.60;;;16.20;81.90;;;;;;4846843;29;20045;-73
2022/10/26 05:47:38;;;;;;;34.90;7.53;;;16.30;81.90;;;;;;4854678;29;20130;-75
2022/10/26 05:50:05;;;;;;;32.50;6.45;;;16.30;82.10;;;;;;4864888;29;20076;-73
2022/10/26 05:52:36;;;;;;;20.52;6.57;;;16.40;82.00;;;;;;4864687;29;20374;-71
2022/10/26 05:55:02;;;;;;;19.27;7.05;;;16.40;81.70;;;;;;4864383;29;20057;-73
2022/10/26 05:57:28;;;;;;;15.40;7.05;;;16.40;81.40;;;;;;4855649;29;20128;-72
2022/10/26 05:59:54;;;;;;;15.50;7.30;;;16.40;80.50;;;;;;4845823;29;20056;-72
2022/10/26 06:02:40;;;;;;;26.58;8.45;;;16.50;79.40;;;;;;4856533;29;20050;-71
2022/10/26 06:05:10;;;;;;;15.75;7.43;;;16.50;78.90;;;;;;4864468;29;20057;-74
2022/10/26 06:07:36;;;;;;;15.25;7.72;;;16.50;78.90;;;;;;4863958;29;20069;-73
2022/10/26 06:10:02;;;;;;;18.38;7.85;;;16.50;78.50;;;;;;4864299;29;20057;-71
2022/10/26 06:12:28;;;;;;;16.65;7.90;;;16.50;78.00;;;;;;4852455;29;20045;-74
2022/10/26 06:14:54;;;;;;;23.20;7.93;;;16.50;77.60;;;;;;4845180;29;20072;-75
2022/10/26 06:17:30;;;;;;;16.80;7.50;;;16.50;77.60;;;;;;4845522;29;20114;-75
2022/10/26 06:20:20;;;;;;;12.98;6.65;;;16.50;77.60;;;;;;4845561;29;20061;-75
2022/10/26 06:23:08;;;;;;;17.88;7.20;;;16.50;77.80;;;;;;4810231;29;20511;-74
2022/10/26 06:25:52;;;;;;;12.68;6.35;;;16.50;77.80;;;;;;4845309;29;20481;-75
2022/10/26 06:28:23;;;;;;;13.63;5.88;;;16.50;78.00;;;;;;4845884;29;20137;-75
2022/10/26 06:30:48;;;;;;;7.88;4.95;;;16.50;77.90;;;;;;4845495;29;20133;-75
2022/10/26 06:33:14;;;;;;;12.25;5.78;;;16.50;78.00;;;;;;4859140;29;20593;-76
2022/10/26 06:35:48;;;;;;;14.35;6.20;;;16.50;78.00;;;;;;4863737;29;20049;-75
2022/10/26 06:38:17;;;;;;;16.73;7.68;;;16.50;77.90;;;;;;4863882;29;20371;-73
2022/10/26 06:40:46;;;;;;;10.30;8.05;;;16.50;77.30;;;;;;4863148;29;20049;-72
2022/10/26 06:43:22;;;;;;;12.25;7.93;;;16.50;76.20;;;;;;4848163;29;20129;-71
2022/10/26 06:46:06;;;;;;;12.90;7.88;;;16.40;75.20;;;;;;4845776;29;20522;-73
2022/10/26 06:48:48;;;;;;;9.80;7.20;;;16.40;74.70;;;;;;4829654;29;20065;-76
2022/10/26 06:51:15;;;;;;;11.70;7.45;;;16.30;74.30;;;;;;4845272;29;20157;-74
2022/10/26 06:53:49;;;;;;;10.93;7.75;;;16.30;74.20;;;;;;4862613;29;20061;-74
2022/10/26 06:56:16;;;;;;;12.25;8.00;;;16.30;73.80;;;;;;4863433;29;20511;-72
2022/10/26 06:58:43;;;;;;;11.35;7.72;;;16.20;73.60;;;;;;4864029;29;20076;-70
2022/10/26 07:01:11;;;;;;;10.48;7.78;;;16.20;72.60;;;;;;4846408;29;20049;-71
2022/10/26 07:03:37;;;;;;;10.07;8.10;;;16.20;72.40;;;;;;4845377;29;20087;-71
2022/10/26 07:06:04;;;;;;;14.95;7.80;;;16.00;72.20;;;;;;4842884;29;20054;-74
2022/10/26 07:08:31;;;;;;;11.18;7.22;;;15.90;72.70;;;;;;4844747;29;20360;-73
2022/10/26 07:10:57;;;;;;;11.85;6.85;;;15.80;73.60;;;;;;4844345;29;20435;-75
2022/10/26 07:13:22;;;;;;;11.32;7.10;;;15.80;74.20;;;;;;4858420;29;20112;-73
2022/10/26 07:15:49;;;;;;;12.45;6.75;;;15.80;74.70;;;;;;4862977;29;20454;-71
2022/10/26 07:18:15;;;;;;;10.80;7.63;;;15.80;75.00;;;;;;4863168;29;20068;-75
2022/10/26 07:20:41;;;;;;;12.15;7.00;;;15.80;75.30;;;;;;4863107;29;20045;-74
2022/10/26 07:23:11;;;;;;;9.63;6.63;;;15.90;75.60;;;;;;4850349;29;20041;-73
2022/10/26 07:25:39;;;;;;;9.27;6.07;;;15.90;75.70;;;;;;4844393;29;20087;-73
2022/10/26 07:28:06;;;;;;;11.93;6.03;;;15.90;75.80;;;;;;4844482;29;20124;-74
2022/10/26 07:30:32;;;;;;;12.45;6.63;;;15.90;75.90;;;;;;4855676;29;20240;-74
2022/10/26 07:33:11;;;;;;;16.23;5.50;;;16.00;76.10;;;;;;4846728;29;20132;-74
2022/10/26 07:35:37;;;;;;;10.55;5.82;;;16.00;76.10;;;;;;4862935;29;20053;-74
2022/10/26 07:38:04;;;;;;;10.25;5.80;;;16.00;76.90;;;;;;4846621;29;20474;-75
2022/10/26 07:40:29;;;;;;;13.57;6.07;;;16.00;76.50;;;;;;4853353;29;21568;-80
2022/10/26 07:42:57;;;;;;;11.07;6.13;;;16.00;76.60;;;;;;4856952;29;20050;-76
2022/10/26 07:45:23;;;;;;;10.13;5.72;;;16.00;76.60;;;;;;4856749;29;20049;-77
2022/10/26 07:47:49;;;;;;;8.75;4.95;;;16.00;76.50;;;;;;4862439;29;20089;-74
2022/10/26 07:50:15;;;;;;;16.00;5.55;;;16.00;76.60;;;;;;4852007;29;20430;-72
2022/10/26 07:52:41;;;;;;;7.25;5.38;;;16.00;76.70;;;;;;4854437;29;20049;-71
2022/10/26 07:55:11;;;;;;;10.00;5.97;;;16.10;76.50;;;;;;4858870;29;20046;-72
2022/10/26 07:57:37;;;;;;;9.07;5.72;;;16.10;76.10;;;;;;4844173;29;20081;-74
2022/10/26 08:00:05;;;;;;;13.45;6.00;;;16.10;75.70;;;;;;4846345;29;20455;-72
2022/10/26 08:02:31;;;;;;;10.40;5.38;;;16.10;75.70;;;;;;4848871;29;20053;-73
2022/10/26 08:04:57;;;;;;;11.00;5.22;;;16.20;75.90;;;;;;4844314;29;20050;-73
2022/10/26 08:07:24;;;;;;;12.07;5.60;;;16.20;76.00;;;;;;4843995;29;20069;-74
2022/10/26 08:09:50;;;;;;;9.70;5.28;;;16.20;76.20;;;;;;4844088;29;20442;-72
2022/10/26 08:12:16;;;;;;;11.13;5.13;;;16.20;76.30;;;;;;4854109;29;20121;-74
2022/10/26 08:14:42;;;;;;;8.68;5.30;;;16.20;76.20;;;;;;4862119;29;20064;-74
2022/10/26 08:17:08;;;;;;;10.18;6.20;;;16.20;75.90;;;;;;4861814;29;20037;-73
2022/10/26 08:19:34;;;;;;;9.65;5.65;;;16.20;75.80;;;;;;4861930;29;20086;-74
2022/10/26 08:22:00;;;;;;;8.63;5.40;;;16.20;75.50;;;;;;4854528;29;20341;-73
2022/10/26 08:24:25;;;;;;;11.30;5.60;;;16.30;75.40;;;;;;4843970;29;20440;-71
2022/10/26 08:26:51;;;;;;;8.48;6.07;;;16.20;75.50;;;;;;4843874;29;20061;-73
2022/10/26 08:29:17;;;;;;;10.90;5.75;;;16.30;75.80;;;;;;4843892;29;20050;-72
2022/10/26 08:31:43;;;;;;;6.40;5.25;;;16.30;75.70;;;;;;4848318;29;20045;-72
2022/10/26 08:34:09;;;;;;;9.18;5.53;;;16.30;75.60;;;;;;4854605;29;20124;-72
2022/10/26 08:36:34;;;;;;;10.52;5.43;;;16.30;75.40;;;;;;4843738;29;20133;-73
2022/10/26 08:39:00;;;;;;;10.63;5.50;;;16.30;75.30;;;;;;4852022;29;20045;-73
2022/10/26 08:41:40;;;;;;;9.25;5.72;;;16.30;75.30;;;;;;4865168;29;20056;-73
2022/10/26 08:44:31;;;;;;;9.35;5.38;;;16.30;75.00;;;;;;4853529;29;20062;-71
2022/10/26 08:47:03;;;;;;;11.43;5.25;;;16.30;75.00;;;;;;4847426;29;20053;-73
2022/10/26 08:49:37;;;;;;;13.48;5.75;;;16.20;75.10;;;;;;4861995;29;20049;-71
2022/10/26 08:52:04;;;;;;;13.20;6.45;;;16.30;75.30;;;;;;4865463;29;20120;-72
2022/10/26 08:54:49;;;;;;;10.65;5.00;;;16.30;75.60;;;;;;4865853;29;20060;-72
2022/10/26 08:57:32;;;;;;;8.82;4.75;;;16.30;75.80;;;;;;4849348;29;20092;-72
2022/10/26 09:00:20;;;;;;;12.67;4.63;;;16.30;76.50;;;;;;4846964;29;20053;-73
2022/10/26 09:02:55;;;;;;;8.15;4.13;;;16.30;76.00;;;;;;4830503;29;20062;-73
2022/10/26 09:05:37;;;;;;;8.77;3.97;;;16.30;76.20;;;;;;4859303;29;20511;-72
2022/10/26 09:08:28;;;;;;;6.72;3.88;;;16.30;76.40;;;;;;4864908;29;20419;-71
2022/10/26 09:11:11;;;;;;;11.13;4.80;;;16.30;76.60;;;;;;4864725;29;20534;-72
2022/10/26 09:13:56;;;;;;;8.40;3.90;;;16.30;77.10;;;;;;4865099;29;20049;-72
2022/10/26 09:16:38;;;;;;;6.88;3.85;;;16.40;77.10;;;;;;4846488;29;20090;-70
2022/10/26 09:19:27;;;;;;;10.80;4.25;;;16.40;76.70;;;;;;4846567;29;20057;-70
2022/10/26 09:22:08;;;;;;;7.20;3.92;;;16.40;76.40;;;;;;4846339;29;20524;-72
2022/10/26 09:24:41;;;;;;;9.35;4.10;;;16.40;76.30;;;;;;4850648;29;20469;-75
2022/10/26 09:27:33;;;;;;;10.40;4.17;;;16.40;76.20;;;;;;4854961;29;20379;-73
2022/10/26 09:30:05;;;;;;;5.20;3.58;;;16.40;76.20;;;;;;4854764;29;20061;-73
2022/10/26 09:32:38;;;;;;;7.03;3.80;;;16.40;76.30;;;;;;4864975;29;20056;-71
2022/10/26 09:35:20;;;;;;;7.07;3.25;;;16.40;76.20;;;;;;4856884;29;20117;-72
2022/10/26 09:38:27;;;;;;;4.82;2.70;;;16.50;76.40;;;;;;4846781;29;20097;-72
2022/10/26 09:41:02;;;;;;;6.30;2.85;;;16.50;76.50;;;;;;4772180;30;20048;-73
2022/10/26 09:43:33;;;;;;;5.90;2.58;;;16.50;76.50;;;;;;4771767;30;20477;-74
2022/10/26 09:45:59;;;;;;;5.68;2.95;;;16.50;76.40;;;;;;4821075;29;20053;-73
2022/10/26 09:48:45;;;;;;;8.85;3.10;;;16.50;76.30;;;;;;4863666;29;20057;-74
2022/10/26 09:51:11;;;;;;;8.40;2.75;;;16.60;76.30;;;;;;4863464;29;20053;-73
2022/10/26 09:53:36;;;;;;;3.70;2.17;;;16.60;76.60;;;;;;4862650;29;20049;-73
2022/10/26 09:56:12;;;;;;;5.82;2.70;;;16.50;76.80;;;;;;4849622;29;20047;-73
2022/10/26 09:58:52;;;;;;;8.82;2.90;;;16.60;77.20;;;;;;4860305;29;20114;-73
2022/10/26 10:01:36;;;;;;;6.85;2.63;;;16.50;77.40;;;;;;4845839;29;20049;-72
2022/10/26 10:04:24;;;;;;;5.93;2.13;;;16.50;77.50;;;;;;4864160;29;20125;-73
2022/10/26 10:07:12;;;;;;;5.47;2.30;;;16.40;77.60;;;;;;4863482;29;20080;-73
2022/10/26 10:09:38;;;;;;;4.82;2.22;;;16.40;77.70;;;;;;4864178;29;20142;-72
2022/10/26 10:12:04;;;;;;;5.93;2.35;;;16.40;77.80;;;;;;4858048;29;20073;-73
2022/10/26 10:14:55;;;;;;;8.45;2.50;;;16.50;77.90;;;;;;4845305;29;20053;-72
2022/10/26 10:17:22;;;;;;;6.32;2.80;;;16.60;77.00;;;;;;4836882;29;20417;-72
2022/10/26 10:19:49;;;;;;;6.32;2.80;;;16.60;76.70;;;;;;4845336;29;20083;-72
2022/10/26 10:22:14;;;;;;;4.20;2.60;;;16.60;76.60;;;;;;4851199;29;20244;-72
2022/10/26 10:24:53;;;;;;;6.68;2.70;;;16.60;76.90;;;;;;4863365;29;20125;-75
2022/10/26 10:27:18;;;;;;;3.60;2.05;;;16.60;77.00;;;;;;4863062;29;20530;-75
2022/10/26 10:29:49;;;;;;;5.65;2.20;;;16.50;77.10;;;;;;4863838;29;20042;-75
2022/10/26 10:32:26;;;;;;;4.50;2.08;;;16.50;77.20;;;;;;4840031;29;20058;-75
2022/10/26 10:34:56;;;;;;;3.97;1.80;;;16.50;77.20;;;;;;4845208;29;20494;-76
2022/10/26 10:37:30;;;;;;;3.10;1.65;;;16.60;77.40;;;;;;4845143;29;20050;-76
2022/10/26 10:40:11;;;;;;;4.15;1.80;;;16.60;77.40;;;;;;4845379;29;20060;-75
2022/10/26 10:42:40;;;;;;;3.22;1.80;;;16.50;77.30;;;;;;4854408;29;20446;-74
2022/10/26 10:45:17;;;;;;;4.35;1.45;;;16.50;77.50;;;;;;4863528;29;20049;-76
2022/10/26 10:48:01;;;;;;;3.20;1.58;;;16.50;77.50;;;;;;4863576;29;20360;-75
2022/10/26 10:50:27;;;;;;;4.20;1.48;;;16.60;77.50;;;;;;4863793;29;20105;-74
2022/10/26 10:53:11;;;;;;;4.25;1.75;;;16.60;77.70;;;;;;4852227;29;20516;-73
2022/10/26 10:55:42;;;;;;;5.97;1.67;;;16.60;77.60;;;;;;4844976;29;20340;-73
2022/10/26 10:58:18;;;;;;;4.82;1.60;;;16.50;77.70;;;;;;4859058;29;20049;-74
2022/10/26 11:00:48;;;;;;;3.75;1.23;;;16.60;77.80;;;;;;4857507;29;20049;-73
2022/10/26 11:03:22;;;;;;;3.47;1.38;;;16.60;77.90;;;;;;4844789;29;20136;-73
2022/10/26 11:05:57;;;;;;;5.20;1.75;;;16.60;77.80;;;;;;4844760;29;20061;-72
2022/10/26 11:08:49;;;;;;;4.05;1.90;;;16.70;77.90;;;;;;4844675;29;20361;-72
2022/10/26 11:11:35;;;;;;;4.78;1.50;;;16.70;78.00;;;;;;4836077;29;20419;-69
2022/10/26 11:14:10;;;;;;;8.30;2.53;;;16.70;78.00;;;;;;4863284;29;20101;-71
2022/10/26 11:16:41;;;;;;;6.10;2.10;;;16.70;78.10;;;;;;4863244;29;20061;-71
2022/10/26 11:19:22;;;;;;;4.63;2.13;;;16.70;78.10;;;;;;4862648;29;20090;-73
2022/10/26 11:21:52;;;;;;;4.05;2.00;;;16.70;77.80;;;;;;4850854;29;20053;-73
2022/10/26 11:24:38;;;;;;;3.78;1.67;;;16.70;78.10;;;;;;4844224;29;20459;-72
2022/10/26 11:27:13;;;;;;;5.45;1.55;;;16.70;78.10;;;;;;4828567;29;20090;-73
2022/10/26 11:29:47;;;;;;;7.13;1.90;;;16.70;78.10;;;;;;4844218;29;20355;-71
2022/10/26 11:32:20;;;;;;;4.78;1.70;;;16.80;78.20;;;;;;4859035;29;20045;-72
2022/10/26 11:34:59;;;;;;;5.05;1.60;;;16.70;78.00;;;;;;4862690;29;20447;-72
2022/10/26 11:37:38;;;;;;;5.35;1.63;;;16.80;78.00;;;;;;4863022;29;20053;-72
2022/10/26 11:40:25;;;;;;;5.40;1.73;;;16.70;78.20;;;;;;4863349;29;20050;-72
2022/10/26 11:43:29;;;;;;;5.35;1.98;;;16.80;78.50;;;;;;4844162;29;20057;-70
2022/10/26 11:46:22;;;;;;;8.40;2.03;;;16.80;78.40;;;;;;4843973;29;20069;-73
2022/10/26 11:49:08;;;;;;;4.28;1.98;;;16.80;78.20;;;;;;4844304;29;20109;-72
2022/10/26 11:52:05;;;;;;;8.18;2.20;;;16.80;78.50;;;;;;4844278;29;20046;-72
2022/10/26 11:54:54;;;;;;;6.28;2.38;;;16.90;78.80;;;;;;4844286;29;20156;-73
2022/10/26 11:57:24;;;;;;;7.63;2.35;;;16.90;79.10;;;;;;4843971;29;20082;-72
2022/10/26 12:00:01;;;;;;;5.07;1.90;;;16.90;78.90;;;;;;4844072;29;20046;-72
2022/10/26 12:02:27;;;;;;;6.88;2.80;;;16.90;78.70;;;;;;4847100;29;20379;-73
2022/10/26 12:05:16;;;;;;;8.02;3.00;;;16.90;78.80;;;;;;4843950;29;20053;-73
2022/10/26 12:07:56;;;;;;;6.43;2.65;;;16.90;78.90;;;;;;4843879;29;20077;-73
2022/10/26 12:10:28;;;;;;;6.78;2.35;;;16.90;78.90;;;;;;4844101;29;20096;-72
2022/10/26 12:13:06;;;;;;;6.32;2.50;;;16.90;78.80;;;;;;4856445;29;20077;-73
2022/10/26 12:15:53;;;;;;;8.45;2.72;;;16.90;78.80;;;;;;4866890;29;20069;-72
2022/10/26 12:18:53;;;;;;;8.65;2.95;;;16.90;78.80;;;;;;4866321;29;20057;-73
2022/10/26 12:21:19;;;;;;;7.03;2.60;;;16.90;78.70;;;;;;4846674;29;20383;-74
2022/10/26 12:24:18;;;;;;;4.68;2.30;;;16.90;79.00;;;;;;4858081;29;20050;-73
2022/10/26 12:26:52;;;;;;;9.10;3.00;;;16.90;79.00;;;;;;4862775;29;20475;-73
2022/10/26 12:29:30;;;;;;;10.32;2.83;;;16.90;79.10;;;;;;4865074;29;20046;-73
2022/10/26 12:31:57;;;;;;;6.28;2.42;;;16.90;78.70;;;;;;4865687;29;20420;-73
2022/10/26 12:34:30;;;;;;;7.07;3.13;;;16.90;79.10;;;;;;4861222;29;20133;-73
2022/10/26 12:36:58;;;;;;;6.73;2.93;;;16.90;79.10;;;;;;4847413;29;20050;-74
2022/10/26 12:39:38;;;;;;;4.25;2.47;;;17.00;79.20;;;;;;4847368;29;20045;-74
2022/10/26 12:42:09;;;;;;;4.13;2.28;;;16.90;78.90;;;;;;4847501;29;20440;-75
2022/10/26 12:44:47;;;;;;;10.02;2.17;;;16.90;78.90;;;;;;4852478;29;20053;-73
2022/10/26 12:47:31;;;;;;;4.70;2.67;;;16.90;78.90;;;;;;4865711;29;20463;-74
2022/10/26 12:50:06;;;;;;;4.93;2.47;;;16.90;79.00;;;;;;4865791;29;20053;-73
2022/10/26 12:52:51;;;;;;;7.20;2.28;;;16.90;78.80;;;;;;4865564;29;20061;-74
2022/10/26 12:55:46;;;;;;;6.13;1.90;;;16.90;78.80;;;;;;4854990;29;20128;-73
2022/10/26 12:58:23;;;;;;;5.15;2.70;;;16.90;79.00;;;;;;4847242;29;20069;-74
2022/10/26 13:00:57;;;;;;;7.75;2.25;;;16.90;79.10;;;;;;4847145;29;20050;-74
2022/10/26 13:03:34;;;;;;;5.82;2.25;;;16.90;79.10;;;;;;4847186;29;20054;-73
2022/10/26 13:06:16;;;;;;;7.25;2.08;;;17.00;79.20;;;;;;4861984;29;20082;-73
2022/10/26 13:08:52;;;;;;;3.90;2.17;;;16.90;79.10;;;;;;4865512;29;20069;-73
2022/10/26 13:11:34;;;;;;;5.38;2.20;;;16.90;79.20;;;;;;4865252;29;20128;-74
2022/10/26 13:14:03;;;;;;;8.80;2.45;;;16.90;79.30;;;;;;4864929;29;20064;-74
2022/10/26 13:16:29;;;;;;;6.75;3.10;;;17.00;79.40;;;;;;4862186;29;20459;-69
2022/10/26 13:18:56;;;;;;;4.05;2.00;;;17.00;79.50;;;;;;4865067;29;20136;-72
2022/10/26 13:21:24;;;;;;;6.68;1.92;;;16.90;79.30;;;;;;4849067;29;20109;-73
2022/10/26 13:23:52;;;;;;;5.47;1.98;;;17.00;79.30;;;;;;4865089;29;20140;-73
2022/10/26 13:26:20;;;;;;;6.63;2.45;;;17.00;79.40;;;;;;4847710;29;20467;-73
2022/10/26 13:28:48;;;;;;;5.38;1.88;;;17.00;79.40;;;;;;4846377;29;20360;-73
2022/10/26 13:31:31;;;;;;;6.97;2.08;;;17.00;79.40;;;;;;4846524;29;20057;-71
2022/10/26 13:34:04;;;;;;;11.10;1.98;;;17.00;79.60;;;;;;4846622;29;20060;-72
2022/10/26 13:36:38;;;;;;;14.77;2.43;;;17.00;79.70;;;;;;4863874;29;20117;-73
2022/10/26 13:39:12;;;;;;;6.03;2.15;;;17.00;79.60;;;;;;4864578;29;20060;-72
2022/10/26 13:41:43;;;;;;;9.15;2.03;;;17.00;79.80;;;;;;4864627;29;20045;-71
2022/10/26 13:44:24;;;;;;;4.85;1.75;;;17.00;79.70;;;;;;4851036;29;20050;-71
2022/10/26 13:46:58;;;;;;;7.00;1.85;;;17.00;79.60;;;;;;4863359;29;20088;-71
2022/10/26 13:49:29;;;;;;;10.90;2.15;;;17.00;79.60;;;;;;4864495;29;20140;-72
2022/10/26 13:51:59;;;;;;;7.57;2.13;;;17.00;79.70;;;;;;4864692;29;20081;-72
2022/10/26 13:54:27;;;;;;;7.50;1.85;;;17.00;79.60;;;;;;4850001;29;20058;-71
2022/10/26 13:57:21;;;;;;;4.50;1.90;;;17.00;79.70;;;;;;4846511;29;20086;-71
2022/10/26 13:59:47;;;;;;;5.60;1.70;;;17.00;79.50;;;;;;4838483;29;20367;-71
2022/10/26 14:02:17;;;;;;;11.27;2.03;;;17.00;79.60;;;;;;4857125;29;20045;-71
2022/10/26 14:04:50;;;;;;;8.00;2.22;;;17.00;79.70;;;;;;4864363;29;20041;-72
2022/10/26 14:07:21;;;;;;;6.78;1.85;;;17.00;79.80;;;;;;4864074;29;20067;-71
2022/10/26 14:09:56;;;;;;;5.05;2.28;;;17.00;79.80;;;;;;4864458;29;20057;-72
2022/10/26 14:12:24;;;;;;;7.95;1.65;;;17.00;79.80;;;;;;4851984;29;20064;-72
2022/10/26 14:14:52;;;;;;;4.35;1.70;;;17.00;79.80;;;;;;4846216;29;20084;-71
2022/10/26 14:17:24;;;;;;;5.03;1.50;;;17.00;79.80;;;;;;4845450;29;20061;-72
2022/10/26 14:19:51;;;;;;;4.20;1.23;;;17.00;79.80;;;;;;4845741;29;20057;-72
2022/10/26 14:22:27;;;;;;;4.50;1.73;;;17.00;79.80;;;;;;4855887;29;20506;-73
2022/10/26 14:24:57;;;;;;;5.85;1.73;;;17.00;79.70;;;;;;4863833;29;20064;-71
2022/10/26 14:27:26;;;;;;;4.20;1.50;;;17.00;79.80;;;;;;4864508;29;20338;-71
2022/10/26 14:29:54;;;;;;;4.20;1.63;;;17.00;79.70;;;;;;4863994;29;20046;-71
2022/10/26 14:32:38;;;;;;;4.57;1.73;;;17.10;79.80;;;;;;4853336;29;20042;-71
2022/10/26 14:35:04;;;;;;;3.72;1.00;;;17.00;79.70;;;;;;4845027;29;20123;-72
2022/10/26 14:37:36;;;;;;;4.88;1.50;;;17.10;79.80;;;;;;4845189;29;20448;-71
2022/10/26 14:40:03;;;;;;;2.57;1.00;;;17.10;79.70;;;;;;4845173;29;20075;-72
2022/10/26 14:42:33;;;;;;;4.43;1.38;;;17.10;79.70;;;;;;4846426;29;20054;-72
2022/10/26 14:44:59;;;;;;;6.38;1.92;;;17.10;79.70;;;;;;4844522;29;20045;-73
2022/10/26 14:47:34;;;;;;;6.18;2.00;;;17.10;79.80;;;;;;4856705;29;20045;-73
2022/10/26 14:50:01;;;;;;;8.18;2.17;;;17.10;79.90;;;;;;4862672;29;20061;-72
2022/10/26 14:52:30;;;;;;;11.40;2.30;;;17.10;80.10;;;;;;4850718;29;20126;-70
2022/10/26 14:55:09;;;;;;;9.02;2.58;;;17.10;80.60;;;;;;4845425;29;20046;-72
2022/10/26 14:57:37;;;;;;;6.70;2.17;;;17.10;80.80;;;;;;4845160;29;20060;-71
2022/10/26 15:00:23;;;;;;;7.80;2.60;;;17.20;80.90;;;;;;4850833;29;20038;-71
2022/10/26 15:02:52;;;;;;;12.27;2.83;;;17.20;81.20;;;;;;4862758;29;20447;-73
2022/10/26 15:05:28;;;;;;;9.10;2.65;;;17.20;81.10;;;;;;4863547;29;20084;-71
2022/10/26 15:07:55;;;;;;;8.50;2.33;;;17.20;80.90;;;;;;4863076;29;20057;-71
2022/10/26 15:10:39;;;;;;;8.25;2.33;;;17.20;80.90;;;;;;4854542;29;20057;-73
2022/10/26 15:13:08;;;;;;;11.55;3.53;;;17.10;80.80;;;;;;4844758;29;20053;-75
2022/10/26 15:15:34;;;;;;;8.05;2.05;;;17.20;81.20;;;;;;4844613;29;20546;-76
2022/10/26 15:18:00;;;;;;;11.60;3.67;;;17.20;80.80;;;;;;4844661;29;20046;-75
2022/10/26 15:20:28;;;;;;;10.52;3.30;;;17.10;80.80;;;;;;4852401;29;20052;-72
2022/10/26 15:22:59;;;;;;;10.98;3.63;;;17.10;80.90;;;;;;4863268;29;20056;-72
2022/10/26 15:25:28;;;;;;;7.00;2.90;;;17.20;81.80;;;;;;4863021;29;20060;-82
2022/10/26 15:28:06;;;;;;;12.07;3.33;;;17.20;81.60;;;;;;4862510;29;20049;-76
2022/10/26 15:30:34;;;;;;;10.45;2.30;;;17.20;81.60;;;;;;4853725;29;20468;-78
2022/10/26 15:33:17;;;;;;;11.15;2.42;;;17.30;81.70;;;;;;4844737;29;20050;-77
2022/10/26 15:35:43;;;;;;;10.40;2.72;;;17.30;81.60;;;;;;4829056;29;20049;-78
2022/10/26 15:38:10;;;;;;;12.52;2.83;;;17.30;81.50;;;;;;4844220;29;20341;-78
2022/10/26 15:40:42;;;;;;;9.80;2.60;;;17.40;81.40;;;;;;4837020;29;20049;-78
2022/10/26 15:43:09;;;;;;;9.35;2.17;;;17.40;81.40;;;;;;4862447;29;20063;-78
2022/10/26 15:45:46;;;;;;;7.47;2.15;;;17.40;81.50;;;;;;4846573;29;20132;-78
2022/10/26 15:48:27;;;;;;;9.65;3.15;;;17.40;81.50;;;;;;4862761;29;20097;-76
2022/10/26 15:51:09;;;;;;;7.15;2.58;;;17.40;81.50;;;;;;4851776;29;20060;-77
2022/10/26 15:53:35;;;;;;;8.30;2.65;;;17.40;81.50;;;;;;4844441;29;20062;-77
2022/10/26 15:56:01;;;;;;;9.38;2.63;;;17.40;81.40;;;;;;4844279;29;20355;-78
2022/10/26 15:58:30;;;;;;;13.90;2.90;;;17.50;81.40;;;;;;4844163;29;20046;-78
2022/10/26 16:00:55;;;;;;;10.05;2.95;;;17.50;81.40;;;;;;4853758;29;20474;-77
2022/10/26 16:03:24;;;;;;;11.35;2.88;;;17.50;81.40;;;;;;4844551;29;20061;-81
2022/10/26 16:05:57;;;;;;;7.30;2.72;;;17.50;81.30;;;;;;4813124;29;20456;-78
2022/10/26 16:08:29;;;;;;;9.55;2.63;;;17.50;81.20;;;;;;4844096;29;20459;-78
2022/10/26 16:10:55;;;;;;;6.97;2.92;;;17.50;81.10;;;;;;4844290;29;20435;-78
2022/10/26 16:13:21;;;;;;;9.65;2.40;;;17.50;81.00;;;;;;4861973;29;20102;-77
2022/10/26 16:15:46;;;;;;;6.60;2.80;;;17.50;80.90;;;;;;4862934;29;20450;-78
2022/10/26 16:18:13;;;;;;;10.68;3.42;;;17.50;80.90;;;;;;4863371;29;20045;-78
2022/10/26 16:20:40;;;;;;;7.20;2.40;;;17.50;80.90;;;;;;4862203;29;20459;-78
2022/10/26 16:23:06;;;;;;;8.35;2.70;;;17.50;80.80;;;;;;4846384;29;20161;-78
2022/10/26 16:25:43;;;;;;;6.07;2.58;;;17.50;80.80;;;;;;4827865;29;20054;-76
2022/10/26 16:28:14;;;;;;;6.60;2.30;;;17.50;80.60;;;;;;4843770;29;20057;-79
2022/10/26 16:30:40;;;;;;;8.30;2.83;;;17.50;80.60;;;;;;4828300;29;20061;-76
2022/10/26 16:33:07;;;;;;;4.45;2.03;;;17.50;80.50;;;;;;4858548;29;20474;-76
2022/10/26 16:35:32;;;;;;;8.25;2.20;;;17.40;80.50;;;;;;4862336;29;20052;-76
2022/10/26 16:37:58;;;;;;;8.77;2.58;;;17.40;80.70;;;;;;4862214;29;20068;-77
2022/10/26 16:40:24;;;;;;;8.45;2.58;;;17.40;80.80;;;;;;4862390;29;20054;-79
2022/10/26 16:42:49;;;;;;;7.53;2.10;;;17.40;80.90;;;;;;4848908;29;20455;-77
2022/10/26 16:45:15;;;;;;;7.57;2.63;;;17.40;81.00;;;;;;4827911;29;20054;-77
2022/10/26 16:47:41;;;;;;;10.20;2.45;;;17.40;80.90;;;;;;4843931;29;20041;-78
2022/10/26 16:50:08;;;;;;;8.02;2.17;;;17.40;81.00;;;;;;4843915;29;20121;-75
2022/10/26 16:52:35;;;;;;;8.02;2.50;;;17.40;81.10;;;;;;4854489;29;20105;-81
2022/10/26 16:55:02;;;;;;;7.38;2.20;;;17.40;81.10;;;;;;4861562;29;20081;-76
2022/10/26 16:57:28;;;;;;;4.53;1.98;;;17.40;81.10;;;;;;4862242;29;20049;-80
2022/10/26 16:59:53;;;;;;;7.15;1.95;;;17.40;81.10;;;;;;4865143;29;20328;-80
2022/10/26 17:02:19;;;;;;;13.18;2.63;;;17.40;81.20;;;;;;4856888;29;20060;-79
2022/10/26 17:04:45;;;;;;;8.52;2.20;;;17.40;81.20;;;;;;4846903;29;20062;-78
2022/10/26 17:07:11;;;;;;;9.85;2.67;;;17.40;81.20;;;;;;4830474;29;20054;-79
2022/10/26 17:09:37;;;;;;;11.43;2.25;;;17.40;81.10;;;;;;4846939;29;20095;-80
2022/10/26 17:12:03;;;;;;;6.40;2.58;;;17.40;81.10;;;;;;4835929;29;20053;-79
2022/10/26 17:14:29;;;;;;;8.57;2.38;;;17.40;81.10;;;;;;4865089;29;20050;-78
2022/10/26 17:16:55;;;;;;;9.65;2.63;;;17.40;80.90;;;;;;4849211;29;20058;-80
2022/10/26 17:19:20;;;;;;;8.63;3.22;;;17.50;80.80;;;;;;4865301;29;20479;-78
2022/10/26 17:21:46;;;;;;;8.32;3.58;;;17.50;80.50;;;;;;4844851;29;20050;-84
2022/10/26 17:24:12;;;;;;;9.88;3.42;;;17.50;80.50;;;;;;4830675;29;20085;-83
2022/10/26 17:26:39;;;;;;;12.23;3.55;;;17.40;80.70;;;;;;4830873;29;20136;-85
2022/10/26 17:29:05;;;;;;;9.73;3.13;;;17.40;80.70;;;;;;4830418;29;20057;-82
2022/10/26 17:31:31;;;;;;;9.32;3.10;;;17.50;80.80;;;;;;4831389;29;20046;-83
2022/10/26 17:33:57;;;;;;;8.05;2.75;;;17.40;80.80;;;;;;4864067;29;20068;-83
2022/10/26 17:36:24;;;;;;;7.93;3.20;;;17.50;80.80;;;;;;4848727;29;20451;-82
2022/10/26 17:38:52;;;;;;;7.50;2.72;;;17.40;80.80;;;;;;4864438;29;20462;-85
2022/10/26 17:41:19;;;;;;;12.55;3.05;;;17.40;80.80;;;;;;4848457;29;20443;-85
2022/10/26 17:43:47;;;;;;;10.55;2.85;;;17.50;80.80;;;;;;4845312;29;20082;-85
2022/10/26 17:46:18;;;;;;;6.60;2.78;;;17.40;80.70;;;;;;4830237;29;20114;-84
2022/10/26 17:48:44;;;;;;;6.97;2.58;;;17.40;80.70;;;;;;4848005;29;20463;-84
2022/10/26 17:51:16;;;;;;;7.05;3.42;;;17.50;80.70;;;;;;4863724;29;20045;-84
2022/10/26 17:53:44;;;;;;;5.45;2.28;;;17.50;80.70;;;;;;4849087;29;20071;-84
2022/10/26 17:56:14;;;;;;;5.30;2.60;;;17.50;80.70;;;;;;4848993;29;20100;-84
2022/10/26 17:58:40;;;;;;;6.95;2.63;;;17.50;80.60;;;;;;4847636;29;20054;-83
2022/10/26 18:01:10;;;;;;;6.10;2.80;;;17.50;80.60;;;;;;4845250;29;20046;-84
2022/10/26 18:03:38;;;;;;;6.72;2.65;;;17.50;80.60;;;;;;4844837;29;20049;-83
2022/10/26 18:06:08;;;;;;;4.07;2.38;;;17.50;80.60;;;;;;4830572;29;20049;-85
2022/10/26 18:08:34;;;;;;;4.50;2.13;;;17.50;80.60;;;;;;4829623;29;20102;-83
2022/10/26 18:11:00;;;;;;;7.13;2.20;;;17.50;80.60;;;;;;4845044;29;20061;-81
2022/10/26 18:13:33;;;;;;;8.55;2.67;;;17.50;80.50;;;;;;4864269;29;20545;-83
2022/10/26 18:16:07;;;;;;;7.63;3.13;;;17.50;80.20;;;;;;4847634;29;20050;-84